createdAt,value
2022-08-26T00:00:51.789Z,8.20
2022-08-26T00:03:20.844Z,6.65
2022-08-26T00:05:52.074Z,6.50
2022-08-26T00:08:21.685Z,8.95
2022-08-26T00:10:50.344Z,8.48
2022-08-26T00:13:19.520Z,8.52
2022-08-26T00:15:48.270Z,8.82
2022-08-26T00:18:22.270Z,8.70
2022-08-26T00:20:52.826Z,7.93
2022-08-26T00:23:24.067Z,6.45
2022-08-26T00:25:53.094Z,7.10
2022-08-26T00:28:22.935Z,8.88
2022-08-26T00:30:52.522Z,9.15
2022-08-26T00:33:23.114Z,10.32
2022-08-26T00:35:53.062Z,14.43
2022-08-26T00:38:22.881Z,13.40
2022-08-26T00:40:53.956Z,16.60
2022-08-26T00:43:24.226Z,13.50
2022-08-26T00:45:58.549Z,13.07
2022-08-26T00:48:31.902Z,11.88
2022-08-26T00:51:07.661Z,12.18
2022-08-26T00:53:41.496Z,12.80
2022-08-26T00:56:17.023Z,11.43
2022-08-26T00:58:48.102Z,11.07
2022-08-26T01:01:17.410Z,11.77
2022-08-26T01:03:47.575Z,12.25
2022-08-26T01:06:18.036Z,12.32
2022-08-26T01:08:46.510Z,18.48
2022-08-26T01:11:15.306Z,11.55
2022-08-26T01:13:45.333Z,10.43
2022-08-26T01:16:16.906Z,10.45
2022-08-26T01:18:46.976Z,9.93
2022-08-26T01:21:23.099Z,10.23
2022-08-26T01:23:57.280Z,10.65
2022-08-26T01:26:29.822Z,9.70
2022-08-26T01:29:01.606Z,9.07
2022-08-26T01:31:34.043Z,9.70
2022-08-26T01:34:07.782Z,10.82
2022-08-26T01:36:38.735Z,10.82
2022-08-26T01:39:09.919Z,11.15
2022-08-26T01:41:40.681Z,11.27
2022-08-26T01:44:19.535Z,10.77
2022-08-26T01:46:52.367Z,11.43
2022-08-26T01:49:24.305Z,10.55
2022-08-26T01:51:56.686Z,11.18
2022-08-26T01:54:28.131Z,10.98
2022-08-26T01:56:56.740Z,10.38
2022-08-26T01:59:26.682Z,9.88
2022-08-26T02:01:55.378Z,10.50
2022-08-26T02:04:28.880Z,10.68
2022-08-26T02:06:59.135Z,10.65
2022-08-26T02:09:29.100Z,10.07
2022-08-26T02:12:01.766Z,11.77
2022-08-26T02:14:34.571Z,11.10
2022-08-26T02:17:04.761Z,10.85
2022-08-26T02:19:40.918Z,11.18
2022-08-26T02:22:16.325Z,10.82
2022-08-26T02:24:51.121Z,11.05
2022-08-26T02:27:25.065Z,11.02
2022-08-26T02:30:00.137Z,10.95
2022-08-26T02:32:29.940Z,10.55
2022-08-26T02:34:58.438Z,11.73
2022-08-26T02:37:30.083Z,10.43
2022-08-26T02:40:00.204Z,10.38
2022-08-26T02:42:28.782Z,9.20
2022-08-26T02:44:57.907Z,10.13
2022-08-26T02:47:28.960Z,10.30
2022-08-26T02:49:57.765Z,9.90
2022-08-26T02:52:26.290Z,9.98
2022-08-26T02:54:56.828Z,11.00
2022-08-26T02:57:26.759Z,9.98
2022-08-26T02:59:55.241Z,10.43
2022-08-26T03:02:23.799Z,9.75
2022-08-26T03:04:57.888Z,8.63
2022-08-26T03:07:32.181Z,29.02
2022-08-26T03:10:01.362Z,66.93
2022-08-26T03:12:38.305Z,7.90
2022-08-26T03:15:17.344Z,7.32
2022-08-26T03:17:47.917Z,9.35
2022-08-26T03:20:17.635Z,9.18
2022-08-26T03:22:46.821Z,9.27
2022-08-26T03:25:18.364Z,8.57
2022-08-26T03:27:48.471Z,10.18
2022-08-26T03:30:35.274Z,9.90
2022-08-26T03:33:04.294Z,10.02
2022-08-26T03:35:33.318Z,10.05
2022-08-26T03:38:03.567Z,10.40
2022-08-26T03:40:33.900Z,9.57
2022-08-26T03:43:06.393Z,9.95
2022-08-26T03:45:38.202Z,9.80
2022-08-26T03:48:07.107Z,10.02
2022-08-26T03:50:36.624Z,9.52
2022-08-26T03:53:07.469Z,9.88
2022-08-26T03:55:43.179Z,9.98
2022-08-26T03:58:13.261Z,10.48
2022-08-26T04:04:00.825Z,9.20
2022-08-26T04:06:32.755Z,9.57
2022-08-26T04:09:03.407Z,9.07
2022-08-26T04:11:35.247Z,10.45
2022-08-26T04:14:10.454Z,10.00
2022-08-26T04:16:39.204Z,9.85
2022-08-26T04:19:08.094Z,9.27
2022-08-26T04:21:38.418Z,9.52
2022-08-26T04:24:11.369Z,9.57
2022-08-26T04:26:42.820Z,9.40
2022-08-26T04:29:17.782Z,9.82
2022-08-26T04:31:47.076Z,9.50
2022-08-26T04:34:17.710Z,10.48
2022-08-26T04:36:46.253Z,10.00
2022-08-26T04:39:18.739Z,10.35
2022-08-26T04:41:50.292Z,10.05
2022-08-26T04:44:20.721Z,9.20
2022-08-26T04:46:50.124Z,9.68
2022-08-26T04:49:19.713Z,9.35
2022-08-26T04:51:49.103Z,8.60
2022-08-26T04:54:17.818Z,8.73
2022-08-26T04:56:49.689Z,8.18
2022-08-26T04:59:20.228Z,8.35
2022-08-26T05:01:56.443Z,8.68
2022-08-26T05:04:25.002Z,8.27
2022-08-26T05:06:57.824Z,8.23
2022-08-26T05:09:30.715Z,7.80
2022-08-26T05:11:59.386Z,7.30
2022-08-26T05:14:29.388Z,7.38
2022-08-26T05:16:58.100Z,6.82
2022-08-26T05:19:27.827Z,7.38
2022-08-26T05:21:56.641Z,7.18
2022-08-26T05:24:25.593Z,6.95
2022-08-26T05:26:54.247Z,6.60
2022-08-26T05:29:25.420Z,7.03
2022-08-26T05:31:55.989Z,6.93
2022-08-26T05:34:25.753Z,7.25
2022-08-26T05:36:58.727Z,6.72
2022-08-26T05:39:27.246Z,6.07
2022-08-26T05:41:55.681Z,6.60
2022-08-26T05:44:25.037Z,7.10
2022-08-26T05:46:53.562Z,6.93
2022-08-26T05:49:26.394Z,6.85
2022-08-26T05:51:55.247Z,6.28
2022-08-26T05:54:24.006Z,5.57
2022-08-26T05:56:52.795Z,6.47
2022-08-26T05:59:24.625Z,6.28
2022-08-26T06:01:54.993Z,6.68
2022-08-26T06:04:27.028Z,6.00
2022-08-26T06:06:58.621Z,6.85
2022-08-26T06:09:27.976Z,6.28
2022-08-26T06:11:58.843Z,6.82
2022-08-26T06:14:27.574Z,6.10
2022-08-26T06:16:56.185Z,6.88
2022-08-26T06:19:26.117Z,6.15
2022-08-26T06:22:23.533Z,7.45
2022-08-26T06:25:10.067Z,7.25
2022-08-26T06:27:38.743Z,6.85
2022-08-26T06:30:09.861Z,6.30
2022-08-26T06:32:38.314Z,6.63
2022-08-26T06:35:11.961Z,6.47
2022-08-26T06:37:41.243Z,5.97
2022-08-26T06:40:10.610Z,5.90
2022-08-26T06:42:40.326Z,6.32
2022-08-26T06:45:09.678Z,6.53
2022-08-26T06:47:39.815Z,6.05
2022-08-26T06:50:10.501Z,5.40
2022-08-26T06:52:39.112Z,5.53
2022-08-26T06:55:08.406Z,5.80
2022-08-26T06:57:39.710Z,5.47
2022-08-26T07:00:11.412Z,4.85
2022-08-26T07:02:41.159Z,6.35
2022-08-26T07:05:16.987Z,5.93
2022-08-26T07:07:45.452Z,5.97
2022-08-26T07:10:13.918Z,6.70
2022-08-26T07:12:42.601Z,6.90
2022-08-26T07:15:15.938Z,7.57
2022-08-26T07:17:44.820Z,6.38
2022-08-26T07:20:13.759Z,7.20
2022-08-26T07:22:43.903Z,6.57
2022-08-26T07:25:12.569Z,6.65
2022-08-26T07:27:41.062Z,6.50
2022-08-26T07:30:10.500Z,5.50
2022-08-26T07:32:43.586Z,6.60
2022-08-26T07:35:12.086Z,7.13
2022-08-26T07:37:40.755Z,7.85
2022-08-26T07:40:11.965Z,6.10
2022-08-26T07:42:40.766Z,7.72
2022-08-26T07:45:09.646Z,9.02
2022-08-26T07:47:38.399Z,6.15
2022-08-26T07:50:07.525Z,5.90
2022-08-26T07:52:37.755Z,6.80
2022-08-26T07:55:08.855Z,6.38
2022-08-26T07:57:39.979Z,6.97
2022-08-26T08:00:13.002Z,6.80
2022-08-26T08:02:44.724Z,5.82
2022-08-26T08:05:14.247Z,5.63
2022-08-26T08:07:44.790Z,5.53
2022-08-26T08:10:17.520Z,5.78
2022-08-26T08:12:49.744Z,7.13
2022-08-26T08:15:21.349Z,6.22
2022-08-26T08:17:51.535Z,6.55
2022-08-26T08:20:21.896Z,5.80
2022-08-26T08:22:52.230Z,6.57
2022-08-26T08:25:22.937Z,6.15
2022-08-26T08:27:52.832Z,4.72
2022-08-26T08:30:23.319Z,4.68
2022-08-26T08:32:52.480Z,4.85
2022-08-26T08:35:22.704Z,4.20
2022-08-26T08:37:54.515Z,3.95
2022-08-26T08:40:25.626Z,4.82
2022-08-26T08:43:00.739Z,4.07
2022-08-26T08:45:37.066Z,4.18
2022-08-26T08:48:12.182Z,3.70
2022-08-26T08:50:45.969Z,3.05
2022-08-26T08:53:18.750Z,2.30
2022-08-26T08:56:06.338Z,2.03
2022-08-26T08:58:52.737Z,2.15
2022-08-26T09:01:42.814Z,2.17
2022-08-26T09:04:35.278Z,2.47
2022-08-26T09:07:05.793Z,1.27
2022-08-26T09:09:39.249Z,2.40
2022-08-26T09:12:13.948Z,2.47
2022-08-26T09:14:44.583Z,2.13
2022-08-26T09:17:24.158Z,1.40
2022-08-26T09:19:55.943Z,1.02
2022-08-26T09:22:33.176Z,0.98
2022-08-26T09:25:03.358Z,1.23
2022-08-26T09:27:40.613Z,1.30
2022-08-26T09:30:13.619Z,1.27
2022-08-26T09:32:42.962Z,1.50
2022-08-26T09:35:27.671Z,1.45
2022-08-26T09:37:57.205Z,1.15
2022-08-26T09:40:30.706Z,1.33
2022-08-26T09:43:22.904Z,1.60
2022-08-26T09:45:59.255Z,1.38
2022-08-26T09:48:32.289Z,1.25
2022-08-26T09:51:07.038Z,1.27
2022-08-26T09:53:50.832Z,1.30
2022-08-26T09:56:27.584Z,1.30
2022-08-26T09:58:58.339Z,1.38
2022-08-26T10:01:33.481Z,1.40
2022-08-26T10:04:09.930Z,1.08
2022-08-26T10:06:43.421Z,1.30
2022-08-26T10:09:15.179Z,1.65
2022-08-26T10:11:47.146Z,1.45
2022-08-26T10:14:22.515Z,1.50
2022-08-26T10:16:58.250Z,1.38
2022-08-26T10:19:55.522Z,1.30
2022-08-26T10:22:25.246Z,1.70
2022-08-26T10:24:58.872Z,1.65
2022-08-26T10:27:37.709Z,1.80
2022-08-26T10:30:13.829Z,1.88
2022-08-26T10:32:50.125Z,2.10
2022-08-26T10:35:20.547Z,1.65
2022-08-26T10:37:54.302Z,1.88
2022-08-26T10:40:27.825Z,2.13
2022-08-26T10:42:59.685Z,2.00
2022-08-26T10:45:30.834Z,1.55
2022-08-26T10:48:06.709Z,2.63
2022-08-26T10:50:40.299Z,2.55
2022-08-26T10:53:14.712Z,1.80
2022-08-26T10:55:54.886Z,3.88
2022-08-26T10:58:39.074Z,1.83
2022-08-26T11:01:33.553Z,1.45
2022-08-26T11:04:10.046Z,2.00
2022-08-26T11:06:39.404Z,1.58
2022-08-26T11:09:10.717Z,1.63
2022-08-26T11:11:50.941Z,2.00
2022-08-26T11:14:53.396Z,2.08
2022-08-26T11:18:00.044Z,1.67
2022-08-26T11:20:42.020Z,1.58
2022-08-26T11:23:41.601Z,1.60
2022-08-26T11:26:35.582Z,1.70
2022-08-26T11:29:12.201Z,1.67
2022-08-26T11:31:56.115Z,1.80
2022-08-26T11:34:54.212Z,1.90
2022-08-26T11:37:30.998Z,1.90
2022-08-26T11:40:04.168Z,1.80
2022-08-26T11:42:41.671Z,1.85
2022-08-26T11:45:23.910Z,8.20
2022-08-26T11:47:52.755Z,2.80
2022-08-26T11:50:26.220Z,1.85
2022-08-26T11:53:01.956Z,2.25
2022-08-26T11:55:32.333Z,2.20
2022-08-26T11:58:06.614Z,2.20
2022-08-26T12:00:51.383Z,1.98
2022-08-26T12:03:24.026Z,2.38
2022-08-26T12:05:54.666Z,1.60
2022-08-26T12:08:28.702Z,1.77
2022-08-26T12:11:04.501Z,1.98
2022-08-26T12:13:33.107Z,2.40
2022-08-26T12:16:02.713Z,1.75
2022-08-26T12:18:34.770Z,1.70
2022-08-26T12:21:13.444Z,2.15
2022-08-26T12:23:46.703Z,1.98
2022-08-26T12:26:24.618Z,2.00
2022-08-26T12:28:57.544Z,2.33
2022-08-26T12:31:32.558Z,1.75
2022-08-26T12:34:04.956Z,2.00
2022-08-26T12:36:37.693Z,1.90
2022-08-26T12:39:12.484Z,2.15
2022-08-26T12:41:50.529Z,14.00
2022-08-26T12:44:36.724Z,2.63
2022-08-26T12:47:10.197Z,3.80
2022-08-26T12:49:40.763Z,2.50
2022-08-26T12:52:30.145Z,2.17
2022-08-26T12:55:03.398Z,2.08
2022-08-26T12:57:35.237Z,2.42
2022-08-26T13:00:30.372Z,2.60
2022-08-26T13:02:59.304Z,2.20
2022-08-26T13:05:33.196Z,2.45
2022-08-26T13:08:16.969Z,2.35
2022-08-26T13:10:48.923Z,2.63
2022-08-26T13:13:17.378Z,2.05
2022-08-26T13:15:45.916Z,2.40
2022-08-26T13:18:14.496Z,2.28
2022-08-26T13:20:44.955Z,2.50
2022-08-26T13:23:15.068Z,2.00
2022-08-26T13:25:43.803Z,2.83
2022-08-26T13:28:13.758Z,2.15
2022-08-26T13:30:45.639Z,11.60
2022-08-26T13:33:14.964Z,4.60
2022-08-26T13:35:43.422Z,4.57
2022-08-26T13:38:22.326Z,6.32
2022-08-26T13:41:02.766Z,3.75
2022-08-26T13:43:33.798Z,3.70
2022-08-26T13:46:02.772Z,3.47
2022-08-26T13:48:31.538Z,3.30
2022-08-26T13:51:00.277Z,4.10
2022-08-26T13:53:29.567Z,3.83
2022-08-26T13:55:58.147Z,3.55
2022-08-26T13:58:26.844Z,3.67
2022-08-26T14:00:58.802Z,3.17
2022-08-26T14:03:28.229Z,3.67
2022-08-26T14:05:56.810Z,3.83
2022-08-26T14:08:25.396Z,4.20
2022-08-26T14:10:54.058Z,4.05
2022-08-26T14:13:22.725Z,4.18
2022-08-26T14:15:51.348Z,3.83
2022-08-26T14:18:29.212Z,4.07
2022-08-26T14:20:58.000Z,3.60
2022-08-26T14:23:26.455Z,4.00
2022-08-26T14:25:55.525Z,3.83
2022-08-26T14:30:59.512Z,4.88
2022-08-26T14:33:32.847Z,3.92
2022-08-26T14:36:15.233Z,3.88
2022-08-26T14:38:43.703Z,5.03
2022-08-26T14:41:13.680Z,4.35
2022-08-26T14:43:48.083Z,3.88
2022-08-26T14:46:17.126Z,3.53
2022-08-26T14:48:47.057Z,3.35
2022-08-26T14:51:15.567Z,4.15
2022-08-26T14:54:01.598Z,3.10
2022-08-26T14:56:32.114Z,4.57
2022-08-26T14:59:00.859Z,4.07
2022-08-26T15:01:31.099Z,4.47
2022-08-26T15:04:02.456Z,4.03
2022-08-26T15:06:32.059Z,3.45
2022-08-26T15:09:01.122Z,4.00
2022-08-26T15:11:29.809Z,3.50
2022-08-26T15:13:59.922Z,3.47
2022-08-26T15:16:29.278Z,3.42
2022-08-26T15:18:58.161Z,2.67
2022-08-26T15:21:28.798Z,3.45
2022-08-26T15:23:57.280Z,3.20
2022-08-26T15:26:25.838Z,3.30
2022-08-26T15:28:54.316Z,3.20
2022-08-26T15:31:31.148Z,3.10
2022-08-26T15:34:02.578Z,3.00
2022-08-26T15:36:33.607Z,3.20
2022-08-26T15:39:02.865Z,2.45
2022-08-26T15:41:31.477Z,3.72
2022-08-26T15:44:04.215Z,3.55
2022-08-26T15:46:32.833Z,3.10
2022-08-26T15:49:01.689Z,3.08
2022-08-26T15:51:45.802Z,3.10
2022-08-26T15:54:16.105Z,2.75
2022-08-26T15:56:45.564Z,3.60
2022-08-26T15:59:16.615Z,3.33
2022-08-26T16:01:45.803Z,2.60
2022-08-26T16:04:15.021Z,2.97
2022-08-26T16:06:50.285Z,2.70
2022-08-26T16:09:20.138Z,3.30
2022-08-26T16:11:48.774Z,6.85
2022-08-26T16:14:17.757Z,3.13
2022-08-26T16:16:47.222Z,3.20
2022-08-26T16:19:16.606Z,2.50
2022-08-26T16:21:46.764Z,2.95
2022-08-26T16:24:15.485Z,4.45
2022-08-26T16:26:45.302Z,7.03
2022-08-26T16:29:17.126Z,3.08
2022-08-26T16:31:45.685Z,3.30
2022-08-26T16:34:14.425Z,3.08
2022-08-26T16:36:43.882Z,3.90
2022-08-26T16:39:14.226Z,2.97
2022-08-26T16:41:42.730Z,2.80
2022-08-26T16:44:12.081Z,2.10
2022-08-26T16:46:41.291Z,2.75
2022-08-26T16:49:09.865Z,2.28
2022-08-26T16:51:38.569Z,2.60
2022-08-26T16:54:08.871Z,2.30
2022-08-26T16:56:39.424Z,2.55
2022-08-26T16:59:11.633Z,2.92
2022-08-26T17:01:40.332Z,2.78
2022-08-26T17:04:09.333Z,3.58
2022-08-26T17:06:38.414Z,3.22
2022-08-26T17:09:07.155Z,2.67
2022-08-26T17:11:36.175Z,3.10
2022-08-26T17:14:06.414Z,2.38
2022-08-26T17:16:35.336Z,2.50
2022-08-26T17:19:04.681Z,2.30
2022-08-26T17:21:35.091Z,2.60
2022-08-26T17:24:04.155Z,2.60
2022-08-26T17:26:32.661Z,2.63
2022-08-26T17:29:01.311Z,2.50
2022-08-26T17:31:32.765Z,2.45
2022-08-26T17:34:01.471Z,2.83
2022-08-26T17:36:30.038Z,2.63
2022-08-26T17:39:00.115Z,2.60
2022-08-26T17:41:28.753Z,2.92
2022-08-26T17:43:57.391Z,2.80
2022-08-26T17:46:26.002Z,2.95
2022-08-26T17:48:56.532Z,2.53
2022-08-26T17:51:25.439Z,3.17
2022-08-26T17:53:54.607Z,2.72
2022-08-26T17:56:25.688Z,2.90
2022-08-26T17:58:56.872Z,2.83
2022-08-26T18:01:27.623Z,2.47
2022-08-26T18:04:00.420Z,2.90
2022-08-26T18:06:31.421Z,2.28
2022-08-26T18:09:00.535Z,3.08
2022-08-26T18:11:29.430Z,2.85
2022-08-26T18:13:58.344Z,2.28
2022-08-26T18:16:27.490Z,3.03
2022-08-26T18:18:58.597Z,3.38
2022-08-26T18:21:28.944Z,3.03
2022-08-26T18:23:57.667Z,2.97
2022-08-26T18:26:31.351Z,3.55
2022-08-26T18:29:00.541Z,2.55
2022-08-26T18:31:30.341Z,2.78
2022-08-26T18:34:01.519Z,2.65
2022-08-26T18:36:31.977Z,2.72
2022-08-26T18:39:01.334Z,2.92
2022-08-26T18:41:31.812Z,2.58
2022-08-26T18:44:01.047Z,2.85
2022-08-26T18:46:29.799Z,3.10
2022-08-26T18:48:59.928Z,2.60
2022-08-26T18:51:30.789Z,2.30
2022-08-26T18:54:00.307Z,2.55
2022-08-26T18:56:29.769Z,3.20
2022-08-26T18:58:59.104Z,2.88
2022-08-26T19:01:30.110Z,2.50
2022-08-26T19:04:02.099Z,2.88
2022-08-26T19:06:33.032Z,3.00
2022-08-26T19:09:01.904Z,2.88
2022-08-26T19:11:32.239Z,3.05
2022-08-26T19:14:07.850Z,2.85
2022-08-26T19:16:36.862Z,3.17
2022-08-26T19:19:07.757Z,2.58
2022-08-26T19:21:37.911Z,2.72
2022-08-26T19:24:09.471Z,2.80
2022-08-26T19:26:39.106Z,3.13
2022-08-26T19:29:07.781Z,3.00
2022-08-26T19:31:36.496Z,2.92
2022-08-26T19:34:07.178Z,3.25
2022-08-26T19:36:36.949Z,2.78
2022-08-26T19:39:07.660Z,3.17
2022-08-26T19:41:38.184Z,3.13
2022-08-26T19:44:09.383Z,3.30
2022-08-26T19:49:13.168Z,3.65
2022-08-26T19:51:42.061Z,3.92
2022-08-26T19:54:10.562Z,3.58
2022-08-26T19:56:39.043Z,4.28
2022-08-26T19:59:07.544Z,4.53
2022-08-26T20:01:36.792Z,4.57
2022-08-26T20:04:05.679Z,4.97
2022-08-26T20:06:35.913Z,4.40
2022-08-26T20:09:05.071Z,4.32
2022-08-26T20:11:33.618Z,4.35
2022-08-26T20:14:02.122Z,4.38
2022-08-26T20:16:30.687Z,3.95
2022-08-26T20:19:16.654Z,4.40
2022-08-26T20:21:47.086Z,4.78
2022-08-26T20:24:18.254Z,5.47
2022-08-26T20:26:47.023Z,4.68
2022-08-26T20:29:19.041Z,4.13
2022-08-26T20:31:48.004Z,5.13
2022-08-26T20:34:18.721Z,6.38
2022-08-26T20:36:50.301Z,4.35
2022-08-26T20:39:21.107Z,5.30
2022-08-26T20:41:50.365Z,5.07
2022-08-26T20:44:19.006Z,4.75
2022-08-26T20:46:47.525Z,4.93
2022-08-26T20:49:18.160Z,4.93
2022-08-26T20:51:51.174Z,4.20
2022-08-26T20:54:24.012Z,6.05
2022-08-26T20:56:56.693Z,5.72
2022-08-26T20:59:26.025Z,4.70
2022-08-26T21:01:54.615Z,4.80
2022-08-26T21:04:25.206Z,4.40
2022-08-26T21:06:55.754Z,5.00
2022-08-26T21:09:26.099Z,5.05
2022-08-26T21:11:55.956Z,4.40
2022-08-26T21:14:25.943Z,4.18
2022-08-26T21:16:54.918Z,4.20
2022-08-26T21:19:23.815Z,4.38
2022-08-26T21:21:52.289Z,4.47
2022-08-26T21:24:23.319Z,3.97
2022-08-26T21:26:51.806Z,4.45
2022-08-26T21:29:22.142Z,4.13
2022-08-26T21:31:50.746Z,3.90
2022-08-26T21:34:20.462Z,3.90
2022-08-26T21:36:49.736Z,4.70
2022-08-26T21:39:18.626Z,3.72
2022-08-26T21:41:48.690Z,3.80
2022-08-26T21:44:18.874Z,4.10
2022-08-26T21:46:47.724Z,4.20
2022-08-26T21:49:17.520Z,3.17
2022-08-26T21:51:49.296Z,3.70
2022-08-26T21:54:18.784Z,3.60
2022-08-26T21:56:49.363Z,3.47
2022-08-26T21:59:20.032Z,3.10
2022-08-26T22:01:49.034Z,3.75
2022-08-26T22:04:18.255Z,3.17
2022-08-26T22:06:57.956Z,3.83
2022-08-26T22:09:28.902Z,3.85
2022-08-26T22:11:59.492Z,4.15
2022-08-26T22:14:30.849Z,3.95
2022-08-26T22:17:00.593Z,4.10
2022-08-26T22:19:31.890Z,4.30
2022-08-26T22:22:03.870Z,4.05
2022-08-26T22:24:32.400Z,3.70
2022-08-26T22:27:02.379Z,4.45
2022-08-26T22:29:33.736Z,4.82
2022-08-26T22:32:02.452Z,3.80
2022-08-26T22:34:31.352Z,3.95
2022-08-26T22:37:00.242Z,3.53
2022-08-26T22:39:28.803Z,3.50
2022-08-26T22:41:57.558Z,3.58
2022-08-26T22:44:27.545Z,3.88
2022-08-26T22:46:56.156Z,4.57
2022-08-26T22:49:25.281Z,4.10
2022-08-26T22:51:54.085Z,4.30
2022-08-26T22:54:22.742Z,4.80
2022-08-26T22:56:51.388Z,4.18
2022-08-26T22:59:19.895Z,4.45
2022-08-26T23:01:49.753Z,5.07
2022-08-26T23:04:18.347Z,4.68
2022-08-26T23:06:47.505Z,4.90
2022-08-26T23:09:18.523Z,5.53
2022-08-26T23:11:48.999Z,5.25
2022-08-26T23:14:18.622Z,5.13
2022-08-26T23:16:47.762Z,5.18
2022-08-26T23:19:20.147Z,4.80
2022-08-26T23:21:49.634Z,4.95
2022-08-26T23:24:18.714Z,4.72
2022-08-26T23:26:48.184Z,5.00
2022-08-26T23:29:16.746Z,4.88
2022-08-26T23:31:45.666Z,547.53
2022-08-26T23:34:32.146Z,570.03
2022-08-26T23:37:06.731Z,733.17
2022-08-26T23:39:36.359Z,5.35
2022-08-26T23:42:06.646Z,4.72
2022-08-26T23:44:35.651Z,4.50
2022-08-26T23:47:04.951Z,4.55
2022-08-26T23:49:34.606Z,4.50
2022-08-26T23:52:22.785Z,4.57
2022-08-26T23:54:52.457Z,4.88
2022-08-26T23:57:22.970Z,4.60
2022-08-26T23:59:51.778Z,5.18
